Time;durP1;ratioP1;P1;durP2;ratioP2;P2;SDS_P1;SDS_P2;PMS_P1;PMS_P2;Temp;Humidity;BMP_temperature;BMP_pressure;BME280_temperature;BME280_humidity;BME280_pressure;Samples;Min_cycle;Max_cycle;Signal;HPM_P1;HPM_P2
2021/12/18 00:01:04;;;;;;;14.27;9.20;;;8.80;99.90;;;;;;5034603;28;20218;-92
2021/12/18 00:03:32;;;;;;;13.37;8.97;;;8.90;99.90;;;;;;5035064;28;20187;-92
2021/12/18 00:05:59;;;;;;;13.47;9.13;;;8.80;99.90;;;;;;5035098;28;20214;-92
2021/12/18 00:08:26;;;;;;;10.93;7.43;;;8.80;99.90;;;;;;5035553;28;20218;-93
2021/12/18 00:10:55;;;;;;;13.33;8.20;;;8.80;99.90;;;;;;5044646;28;20224;-91
2021/12/18 00:13:22;;;;;;;10.87;7.20;;;8.80;99.90;;;;;;5053668;28;20198;-90
2021/12/18 00:15:51;;;;;;;9.20;6.27;;;8.80;99.90;;;;;;5034933;28;20194;-92
2021/12/18 00:18:18;;;;;;;10.33;6.23;;;8.90;99.90;;;;;;5034876;28;20231;-89
2021/12/18 00:20:45;;;;;;;9.80;6.67;;;8.90;99.90;;;;;;5034261;28;20203;-87
2021/12/18 00:23:12;;;;;;;9.20;5.50;;;8.80;99.90;;;;;;5046173;28;20206;-89
2021/12/18 00:25:39;;;;;;;8.90;5.53;;;8.80;99.90;;;;;;5054544;28;20198;-89
2021/12/18 00:28:06;;;;;;;9.23;5.80;;;8.80;99.90;;;;;;5054925;28;20216;-90
2021/12/18 00:30:33;;;;;;;9.63;6.40;;;8.70;99.90;;;;;;5054741;28;20931;-90
2021/12/18 00:33:02;;;;;;;10.73;6.30;;;8.70;99.90;;;;;;5053950;28;20209;-92
2021/12/18 00:35:29;;;;;;;11.83;7.10;;;8.70;99.90;;;;;;5052829;28;20677;-91
2021/12/18 00:37:56;;;;;;;8.47;5.43;;;8.70;99.90;;;;;;5052666;28;20226;-89
2021/12/18 00:40:25;;;;;;;8.63;6.70;;;8.70;99.90;;;;;;5051185;28;20598;-91
2021/12/18 00:42:59;;;;;;;9.57;6.20;;;8.60;99.90;;;;;;5054278;28;20205;-89
2021/12/18 00:45:28;;;;;;;8.03;6.37;;;8.60;99.90;;;;;;5048845;28;20277;-90
2021/12/18 00:47:55;;;;;;;9.30;5.73;;;8.60;99.90;;;;;;5034662;28;20535;-92
2021/12/18 00:50:26;;;;;;;7.40;5.30;;;8.60;99.90;;;;;;5034946;28;20202;-89
2021/12/18 00:52:53;;;;;;;9.53;6.47;;;8.60;99.90;;;;;;5034411;28;20207;-89
2021/12/18 00:55:21;;;;;;;11.80;7.57;;;8.60;99.90;;;;;;5034437;28;20198;-89
2021/12/18 00:57:48;;;;;;;9.40;7.13;;;8.60;99.90;;;;;;5033932;28;20230;-90
2021/12/18 01:00:21;;;;;;;9.57;6.40;;;8.60;99.90;;;;;;5034441;28;20498;-88
2021/12/18 01:02:49;;;;;;;9.27;6.30;;;8.60;99.90;;;;;;5033690;28;20207;-89
2021/12/18 01:05:16;;;;;;;9.97;6.97;;;8.60;99.90;;;;;;5033507;28;20443;-89
2021/12/18 01:07:45;;;;;;;11.10;7.07;;;8.60;99.90;;;;;;5033366;28;20772;-91
2021/12/18 01:10:18;;;;;;;13.03;7.30;;;8.60;99.90;;;;;;5033939;28;20544;-92
2021/12/18 01:12:48;;;;;;;10.13;6.10;;;8.60;99.90;;;;;;5033375;28;20285;-92
2021/12/18 01:15:19;;;;;;;8.80;5.93;;;8.60;99.90;;;;;;5033452;28;20202;-91
2021/12/18 01:23:17;;;;;;;10.03;7.00;;;8.50;99.90;;;;;;5033356;28;20245;-90
2021/12/18 01:25:44;;;;;;;9.23;6.23;;;8.50;99.90;;;;;;5033465;28;20202;-91
2021/12/18 01:28:11;;;;;;;9.77;6.83;;;8.50;99.90;;;;;;5033564;28;20202;-92
2021/12/18 01:30:38;;;;;;;9.10;6.20;;;8.50;99.90;;;;;;5033133;28;20215;-91
2021/12/18 01:33:05;;;;;;;8.80;5.53;;;8.50;99.90;;;;;;5033817;28;20605;-91
2021/12/18 01:35:32;;;;;;;11.03;6.43;;;8.50;99.90;;;;;;5033464;28;20220;-91
2021/12/18 01:37:59;;;;;;;9.50;6.70;;;8.50;99.90;;;;;;5033043;28;20237;-92
2021/12/18 01:40:28;;;;;;;9.43;6.67;;;8.50;99.90;;;;;;5033615;28;20202;-92
2021/12/18 01:46:01;;;;;;;9.17;5.47;;;8.40;99.90;;;;;;5033469;28;20728;-91
2021/12/18 01:51:21;;;;;;;10.10;5.97;;;8.40;99.90;;;;;;5033253;28;20196;-90
2021/12/18 01:53:50;;;;;;;9.17;5.90;;;8.40;99.90;;;;;;5031029;28;20211;-90
2021/12/18 01:56:20;;;;;;;8.43;5.13;;;8.40;99.90;;;;;;5033293;28;20206;-92
2021/12/18 01:58:47;;;;;;;7.77;5.53;;;8.30;99.90;;;;;;5033437;28;20225;-92
2021/12/18 02:01:16;;;;;;;6.73;4.97;;;8.30;99.90;;;;;;5046291;28;20214;-92
2021/12/18 02:03:44;;;;;;;7.37;4.70;;;8.30;99.90;;;;;;5053140;28;20205;-92
2021/12/18 02:06:11;;;;;;;7.30;4.67;;;8.30;99.90;;;;;;5052930;28;20201;-93
2021/12/18 02:08:39;;;;;;;6.53;4.70;;;8.30;99.90;;;;;;5043449;28;20215;-91
2021/12/18 02:11:15;;;;;;;7.03;4.47;;;8.20;99.90;;;;;;5038563;28;20209;-91
2021/12/18 02:14:07;;;;;;;5.67;4.03;;;8.20;99.90;;;;;;5032437;28;20229;-89
2021/12/18 02:22:13;;;;;;;6.07;4.40;;;8.10;99.90;;;;;;5027612;28;20247;-91
2021/12/18 02:24:40;;;;;;;6.47;4.33;;;8.10;99.90;;;;;;5032605;28;20206;-90
2021/12/18 02:27:07;;;;;;;6.40;4.13;;;8.10;99.90;;;;;;5032698;28;20218;-90
2021/12/18 02:29:36;;;;;;;6.77;4.50;;;8.10;99.90;;;;;;5032481;28;20191;-89
2021/12/18 02:32:05;;;;;;;7.73;4.73;;;8.10;99.90;;;;;;5032371;28;20202;-87
2021/12/18 02:34:33;;;;;;;6.10;4.20;;;8.10;99.90;;;;;;5046082;28;20216;-89
2021/12/18 02:37:04;;;;;;;8.03;4.77;;;8.10;99.90;;;;;;5052220;28;20228;-89
2021/12/18 02:42:20;;;;;;;11.77;4.53;;;8.10;99.90;;;;;;5018641;28;20413;-90
2021/12/18 02:44:47;;;;;;;5.57;3.67;;;8.20;99.90;;;;;;5032809;28;20508;-90
2021/12/18 02:47:14;;;;;;;7.97;4.37;;;8.20;99.90;;;;;;5032033;28;20210;-88
2021/12/18 02:49:45;;;;;;;5.73;3.70;;;8.20;99.90;;;;;;5032276;28;20221;-91
2021/12/18 02:52:12;;;;;;;17.57;4.10;;;8.20;99.90;;;;;;5032578;28;20208;-92
2021/12/18 02:54:41;;;;;;;6.00;3.90;;;8.10;99.90;;;;;;5032064;28;20201;-92
2021/12/18 02:57:09;;;;;;;6.13;3.90;;;8.10;99.90;;;;;;5032412;28;20214;-91
2021/12/18 02:59:43;;;;;;;6.27;4.17;;;8.10;99.90;;;;;;5032026;28;20231;-88
2021/12/18 03:02:11;;;;;;;6.00;3.93;;;8.10;99.90;;;;;;5032315;28;20248;-90
2021/12/18 03:04:39;;;;;;;6.20;4.53;;;8.10;99.90;;;;;;5032255;28;20653;-89
2021/12/18 03:07:10;;;;;;;6.20;4.00;;;8.00;99.90;;;;;;5032479;28;20241;-90
2021/12/18 03:18:58;;;;;;;6.93;4.03;;;8.00;99.90;;;;;;5031477;28;20195;-90
2021/12/18 03:23:43;;;;;;;9.13;5.03;;;8.00;99.90;;;;;;5031479;28;20193;-91
2021/12/18 03:26:12;;;;;;;7.03;4.77;;;8.00;99.90;;;;;;5031871;28;20323;-91
2021/12/18 03:28:41;;;;;;;6.60;4.17;;;8.00;99.90;;;;;;5050248;28;20205;-91
2021/12/18 03:31:08;;;;;;;6.70;3.83;;;8.10;99.90;;;;;;5041419;28;20237;-91
2021/12/18 03:33:35;;;;;;;6.63;4.43;;;8.00;99.90;;;;;;5030948;28;20522;-91
2021/12/18 03:36:02;;;;;;;6.30;4.37;;;8.00;99.90;;;;;;5030371;28;20230;-90
2021/12/18 03:38:29;;;;;;;11.10;5.10;;;8.00;99.90;;;;;;5031194;28;20239;-90
2021/12/18 03:40:58;;;;;;;7.40;4.47;;;8.00;99.90;;;;;;5033595;28;20290;-90
2021/12/18 03:43:25;;;;;;;7.10;4.50;;;8.00;99.90;;;;;;5031357;28;20191;-90
2021/12/18 03:45:53;;;;;;;7.57;4.50;;;8.00;99.90;;;;;;5031718;28;20207;-89
2021/12/18 03:48:20;;;;;;;9.50;5.20;;;8.00;99.90;;;;;;5034236;28;20202;-89
2021/12/18 03:50:47;;;;;;;8.50;5.10;;;8.00;99.90;;;;;;5034619;28;20606;-89
2021/12/18 03:53:14;;;;;;;8.50;4.77;;;8.00;99.90;;;;;;5034878;28;20199;-88
2021/12/18 03:55:41;;;;;;;6.27;3.83;;;8.00;99.90;;;;;;5034940;28;20580;-86
2021/12/18 03:58:08;;;;;;;6.03;3.20;;;8.10;99.90;;;;;;5034889;28;20244;-87
2021/12/18 04:00:35;;;;;;;5.10;2.93;;;8.00;99.90;;;;;;5034729;28;20214;-89
2021/12/18 04:03:04;;;;;;;4.67;2.93;;;8.10;99.90;;;;;;5034451;28;20203;-89
2021/12/18 04:05:31;;;;;;;4.57;3.17;;;8.00;99.90;;;;;;5034471;28;20514;-90
2021/12/18 04:08:08;;;;;;;4.47;2.97;;;8.00;99.90;;;;;;5034837;28;20502;-91
2021/12/18 04:10:36;;;;;;;5.90;3.40;;;8.00;99.90;;;;;;5034056;28;20210;-91
2021/12/18 04:13:03;;;;;;;6.40;3.57;;;7.90;99.90;;;;;;5034926;28;20194;-91
2021/12/18 04:15:30;;;;;;;6.17;3.43;;;8.00;99.90;;;;;;5034878;28;20209;-90
2021/12/18 04:17:56;;;;;;;5.87;4.00;;;8.00;99.90;;;;;;5034740;28;20230;-90
2021/12/18 04:20:25;;;;;;;6.90;4.13;;;8.00;99.90;;;;;;5034745;28;20221;-91
2021/12/18 04:22:52;;;;;;;5.77;4.03;;;8.00;99.90;;;;;;5034554;28;20210;-91
2021/12/18 04:25:19;;;;;;;5.63;2.73;;;8.00;99.90;;;;;;5034209;28;20298;-92
2021/12/18 04:27:46;;;;;;;6.93;3.10;;;8.00;99.90;;;;;;5048445;28;20572;-90
2021/12/18 04:30:13;;;;;;;3.97;2.80;;;8.00;99.90;;;;;;5054055;28;20248;-91
2021/12/18 04:32:40;;;;;;;3.63;2.50;;;7.90;99.90;;;;;;5041862;28;20601;-91
2021/12/18 04:35:08;;;;;;;3.80;1.93;;;7.90;99.90;;;;;;5066230;23;20239;-89
2021/12/18 04:37:36;;;;;;;3.60;2.20;;;7.90;99.90;;;;;;5067162;28;20212;-92
2021/12/18 04:40:05;;;;;;;4.20;2.20;;;7.80;99.90;;;;;;5052554;28;20226;-92
2021/12/18 04:42:32;;;;;;;5.13;2.43;;;7.80;99.90;;;;;;5051616;28;20289;-90
2021/12/18 04:44:58;;;;;;;5.13;2.40;;;7.90;99.90;;;;;;5056409;28;20877;-91
2021/12/18 04:47:25;;;;;;;4.70;2.57;;;7.90;99.90;;;;;;5050020;28;20202;-91
2021/12/18 04:49:52;;;;;;;4.20;2.67;;;7.80;99.90;;;;;;5051549;28;20206;-91
2021/12/18 04:52:19;;;;;;;5.03;2.87;;;7.80;99.90;;;;;;5061161;28;20205;-90
2021/12/18 04:54:48;;;;;;;4.17;2.27;;;7.80;99.90;;;;;;5073019;28;20201;-89
2021/12/18 04:57:15;;;;;;;3.37;2.20;;;7.80;99.90;;;;;;5073013;28;20209;-90
2021/12/18 04:59:44;;;;;;;5.63;2.20;;;7.70;99.90;;;;;;5070831;28;20221;-90
2021/12/18 05:02:13;;;;;;;3.17;2.20;;;7.70;99.90;;;;;;5068866;28;20213;-90
2021/12/18 05:04:40;;;;;;;3.70;1.90;;;7.60;99.90;;;;;;5071262;28;20197;-89
2021/12/18 05:07:10;;;;;;;4.23;2.23;;;7.50;99.90;;;;;;5063591;28;20201;-90
2021/12/18 05:09:36;;;;;;;3.40;2.37;;;7.50;99.90;;;;;;5050423;28;20262;-92
2021/12/18 05:12:05;;;;;;;6.67;1.70;;;7.50;99.90;;;;;;5053554;28;20202;-91
2021/12/18 05:14:32;;;;;;;3.27;1.23;;;7.50;99.90;;;;;;5053592;28;20187;-91
2021/12/18 05:17:00;;;;;;;2.83;1.50;;;7.50;99.90;;;;;;5054235;28;20213;-91
2021/12/18 05:19:27;;;;;;;2.87;1.20;;;7.50;99.90;;;;;;5053485;28;20229;-92
2021/12/18 05:21:54;;;;;;;7.47;1.23;;;7.40;99.90;;;;;;5053725;28;20305;-90
2021/12/18 05:24:21;;;;;;;3.53;1.00;;;7.50;99.90;;;;;;5053461;28;20312;-92
2021/12/18 05:26:48;;;;;;;1.07;0.70;;;7.50;99.90;;;;;;5053686;28;20190;-92
2021/12/18 05:29:16;;;;;;;0.83;0.73;;;7.50;99.90;;;;;;5053901;28;20856;-91
2021/12/18 05:31:43;;;;;;;2.97;0.97;;;7.40;99.90;;;;;;5053295;28;20206;-91
2021/12/18 05:34:10;;;;;;;3.20;1.40;;;7.40;99.90;;;;;;5053384;28;20237;-93
2021/12/18 05:37:01;;;;;;;1.90;1.30;;;7.40;99.90;;;;;;5053492;28;20221;-93
2021/12/18 05:39:25;;;;;;;2.93;2.00;;;7.30;99.90;;;;;;5067981;28;20539;-94
2021/12/18 05:41:52;;;;;;;3.37;2.07;;;7.40;99.90;;;;;;5067745;28;20551;-92
2021/12/18 05:44:22;;;;;;;3.60;2.30;;;7.30;99.90;;;;;;5053840;28;20206;-92
2021/12/18 05:46:50;;;;;;;4.03;2.10;;;7.20;99.90;;;;;;5054008;28;20216;-92
2021/12/18 05:49:18;;;;;;;2.87;1.60;;;7.20;99.90;;;;;;5053608;28;20602;-94
2021/12/18 05:51:45;;;;;;;3.67;2.27;;;7.20;99.90;;;;;;5060289;28;20209;-92
2021/12/18 05:54:13;;;;;;;4.03;2.30;;;7.20;99.90;;;;;;5072957;28;20220;-92
2021/12/18 05:56:41;;;;;;;9.30;2.67;;;7.10;99.90;;;;;;5066137;28;20206;-91
2021/12/18 05:59:08;;;;;;;9.20;2.67;;;7.20;99.90;;;;;;5053354;28;20234;-92
2021/12/18 06:01:37;;;;;;;4.27;2.60;;;7.00;99.90;;;;;;5053122;28;20210;-92
2021/12/18 06:04:04;;;;;;;3.93;2.23;;;7.10;99.90;;;;;;5053172;28;20280;-90
2021/12/18 06:06:31;;;;;;;7.20;2.33;;;7.10;99.90;;;;;;5052580;28;20210;-91
2021/12/18 06:08:58;;;;;;;3.60;2.20;;;7.00;99.90;;;;;;5053045;28;20644;-90
2021/12/18 06:11:27;;;;;;;4.20;2.20;;;7.00;99.90;;;;;;5052271;28;20206;-90
2021/12/18 06:13:55;;;;;;;2.97;1.57;;;6.90;99.90;;;;;;5052447;28;20292;-88
2021/12/18 06:16:22;;;;;;;3.77;1.93;;;7.00;99.90;;;;;;5052785;28;20507;-91
2021/12/18 06:18:52;;;;;;;4.87;1.90;;;6.90;99.90;;;;;;5052400;28;20800;-91
2021/12/18 06:21:22;;;;;;;6.00;1.97;;;6.90;99.90;;;;;;5052667;28;20206;-91
2021/12/18 06:23:51;;;;;;;3.77;1.70;;;6.90;99.90;;;;;;5052752;28;20202;-91
2021/12/18 06:26:19;;;;;;;5.07;2.00;;;6.90;99.90;;;;;;5052383;28;20201;-90
2021/12/18 06:28:47;;;;;;;2.90;1.77;;;6.80;99.90;;;;;;5052586;28;20286;-91
2021/12/18 06:31:31;;;;;;;2.60;1.77;;;6.80;99.90;;;;;;5055340;28;20201;-90
2021/12/18 06:33:59;;;;;;;3.80;1.80;;;6.80;99.90;;;;;;5072582;28;20241;-92
2021/12/18 06:36:26;;;;;;;3.07;1.90;;;6.80;99.90;;;;;;5072484;28;20220;-92
2021/12/18 06:38:53;;;;;;;5.20;2.23;;;6.80;99.90;;;;;;5072605;28;20221;-90
2021/12/18 06:41:20;;;;;;;5.43;2.27;;;6.80;99.90;;;;;;5072205;28;20224;-92
2021/12/18 06:43:47;;;;;;;5.80;2.60;;;6.70;99.90;;;;;;5057276;28;20225;-91
2021/12/18 06:46:14;;;;;;;3.63;2.20;;;6.80;99.90;;;;;;5076577;23;20244;-91
2021/12/18 06:48:40;;;;;;;4.33;2.27;;;6.90;99.90;;;;;;5071196;28;20465;-90
2021/12/18 06:51:09;;;;;;;3.47;2.03;;;6.90;99.90;;;;;;5052608;28;20212;-91
2021/12/18 06:53:35;;;;;;;13.57;2.33;;;6.80;99.90;;;;;;5052271;28;20198;-91
2021/12/18 06:56:03;;;;;;;3.87;1.73;;;6.90;99.90;;;;;;5052138;28;20509;-92
2021/12/18 06:58:30;;;;;;;5.27;1.63;;;6.80;99.90;;;;;;5051953;28;20260;-92
2021/12/18 07:00:57;;;;;;;6.30;1.70;;;6.70;99.90;;;;;;5062060;28;20581;-92
2021/12/18 07:03:25;;;;;;;2.70;1.30;;;6.70;99.90;;;;;;5071539;28;20212;-91
2021/12/18 07:05:51;;;;;;;5.47;1.30;;;6.70;99.90;;;;;;5072207;28;20255;-91
2021/12/18 07:08:20;;;;;;;6.87;1.67;;;6.70;99.90;;;;;;5072325;28;20205;-91
2021/12/18 07:10:47;;;;;;;2.43;1.40;;;6.70;99.90;;;;;;5071921;28;20197;-91
2021/12/18 07:13:13;;;;;;;5.27;2.17;;;6.60;99.90;;;;;;5069375;28;20205;-90
2021/12/18 07:15:42;;;;;;;6.60;2.80;;;6.70;99.90;;;;;;5072386;28;20829;-90
2021/12/18 07:18:09;;;;;;;5.40;3.10;;;6.70;99.90;;;;;;5068712;28;20198;-91
2021/12/18 07:20:35;;;;;;;4.87;2.73;;;6.70;99.90;;;;;;5051725;28;20218;-90
2021/12/18 07:23:03;;;;;;;10.17;2.90;;;6.60;99.90;;;;;;5054476;28;20206;-92
2021/12/18 07:25:32;;;;;;;26.40;4.20;;;6.60;99.90;;;;;;5055624;28;20336;-91
2021/12/18 07:27:59;;;;;;;8.87;3.03;;;6.60;99.90;;;;;;5056196;28;20202;-93
2021/12/18 07:30:26;;;;;;;6.63;3.40;;;6.60;99.90;;;;;;5056278;28;20213;-92
2021/12/18 07:32:53;;;;;;;4.83;2.57;;;6.50;99.90;;;;;;5064078;28;20336;-93
2021/12/18 07:35:20;;;;;;;9.97;3.10;;;6.50;99.90;;;;;;5075503;28;20484;-92
2021/12/18 07:37:47;;;;;;;5.23;3.10;;;6.50;99.90;;;;;;5064937;28;20201;-92
2021/12/18 07:40:14;;;;;;;4.23;3.00;;;6.60;99.90;;;;;;5075847;28;20212;-92
2021/12/18 07:42:43;;;;;;;30.03;4.67;;;6.50;99.90;;;;;;5074788;28;20209;-92
2021/12/18 07:45:13;;;;;;;5.73;3.43;;;6.50;99.90;;;;;;5076114;28;20637;-91
2021/12/18 07:47:40;;;;;;;6.03;3.60;;;6.60;99.90;;;;;;5074787;28;20224;-93
2021/12/18 07:50:18;;;;;;;9.60;4.17;;;6.60;99.90;;;;;;5075982;28;20202;-92
2021/12/18 07:53:06;;;;;;;8.17;4.30;;;6.60;99.90;;;;;;5074180;28;20222;-92
2021/12/18 07:55:33;;;;;;;18.27;5.03;;;6.60;99.90;;;;;;5075743;28;20613;-91
2021/12/18 07:58:01;;;;;;;7.60;4.13;;;6.60;99.90;;;;;;5058304;28;20202;-91
2021/12/18 08:00:28;;;;;;;12.43;4.67;;;6.60;99.90;;;;;;5055444;28;20222;-89
2021/12/18 08:02:55;;;;;;;6.87;4.67;;;6.60;99.90;;;;;;5055978;28;20206;-88
2021/12/18 08:05:22;;;;;;;7.27;4.50;;;6.60;99.90;;;;;;5055348;28;20507;-90
2021/12/18 08:07:49;;;;;;;9.57;4.23;;;6.60;99.90;;;;;;5055547;28;20875;-90
2021/12/18 08:10:16;;;;;;;28.40;5.10;;;6.60;99.90;;;;;;5055183;28;20501;-90
2021/12/18 08:12:43;;;;;;;5.60;3.50;;;6.60;99.90;;;;;;5069582;28;20217;-91
2021/12/18 08:15:11;;;;;;;15.13;4.23;;;6.60;99.90;;;;;;5070945;28;20209;-92
2021/12/18 08:17:38;;;;;;;7.27;3.17;;;6.60;99.90;;;;;;5074405;28;20189;-91
2021/12/18 08:20:06;;;;;;;14.00;3.80;;;6.60;99.90;;;;;;5063136;28;20226;-87
2021/12/18 08:22:33;;;;;;;16.40;3.50;;;6.60;99.90;;;;;;5054647;28;20214;-87
2021/12/18 08:25:00;;;;;;;11.33;3.80;;;6.70;99.90;;;;;;5052244;28;20206;-88
2021/12/18 08:27:28;;;;;;;7.07;4.20;;;6.70;99.90;;;;;;5054176;28;20516;-90
2021/12/18 08:29:55;;;;;;;9.63;5.13;;;6.70;99.90;;;;;;5055453;28;20210;-94
2021/12/18 08:32:25;;;;;;;7.17;4.57;;;6.60;99.90;;;;;;5055076;28;20194;-93
2021/12/18 08:34:53;;;;;;;6.87;3.90;;;6.60;99.90;;;;;;5055407;28;20202;-90
2021/12/18 08:37:20;;;;;;;5.73;3.33;;;6.60;99.90;;;;;;5054791;28;20289;-90
2021/12/18 08:39:48;;;;;;;6.00;3.77;;;6.60;99.90;;;;;;5054976;28;20312;-92
2021/12/18 08:42:15;;;;;;;5.80;3.73;;;6.60;99.90;;;;;;5055469;28;20249;-92
2021/12/18 08:44:42;;;;;;;5.37;2.23;;;6.60;99.90;;;;;;5064214;28;20246;-92
2021/12/18 08:47:10;;;;;;;4.67;2.40;;;6.50;99.90;;;;;;5075173;28;20608;-90
2021/12/18 08:49:38;;;;;;;3.43;1.90;;;6.50;99.90;;;;;;5075055;28;20231;-93
2021/12/18 08:52:06;;;;;;;3.00;1.80;;;6.60;99.90;;;;;;5074663;28;20205;-93
2021/12/18 08:54:33;;;;;;;4.33;1.80;;;6.50;99.90;;;;;;5074512;28;20201;-94
2021/12/18 08:56:59;;;;;;;4.57;2.33;;;6.60;99.90;;;;;;5074468;28;20201;-88
2021/12/18 08:59:26;;;;;;;3.77;2.10;;;6.70;99.90;;;;;;5057238;28;20822;-90
2021/12/18 09:01:53;;;;;;;6.93;2.57;;;6.70;99.90;;;;;;5054163;28;20212;-91
2021/12/18 09:04:20;;;;;;;4.67;2.67;;;6.80;99.90;;;;;;5055021;28;20197;-96
2021/12/18 09:06:49;;;;;;;6.57;2.67;;;6.80;99.90;;;;;;5054380;28;20208;-92
2021/12/18 09:09:16;;;;;;;5.17;2.67;;;6.70;99.90;;;;;;5053901;28;20213;-91
2021/12/18 09:11:43;;;;;;;4.47;2.37;;;6.70;99.90;;;;;;5052237;28;20213;-90
2021/12/18 09:14:10;;;;;;;3.87;2.30;;;6.70;99.90;;;;;;5052542;28;20486;-88
2021/12/18 09:16:37;;;;;;;3.57;2.20;;;6.70;99.90;;;;;;5052870;28;20209;-89
2021/12/18 09:19:03;;;;;;;4.20;2.33;;;6.80;99.90;;;;;;5065359;28;20219;-89
2021/12/18 09:21:30;;;;;;;3.50;2.20;;;6.80;99.90;;;;;;5073667;28;20235;-89
2021/12/18 09:23:59;;;;;;;7.50;2.50;;;6.90;99.90;;;;;;5074829;28;20201;-91
2021/12/18 09:26:26;;;;;;;9.90;2.70;;;6.90;99.90;;;;;;5072336;28;20255;-90
2021/12/18 09:28:53;;;;;;;7.13;2.53;;;6.90;99.90;;;;;;5072390;28;20217;-92
2021/12/18 09:31:20;;;;;;;8.40;2.73;;;7.00;99.90;;;;;;5074825;28;20201;-90
2021/12/18 09:33:47;;;;;;;7.50;3.73;;;6.90;99.90;;;;;;5073348;28;20874;-94
2021/12/18 09:36:14;;;;;;;7.33;2.90;;;6.90;99.90;;;;;;5076515;28;20231;-88
2021/12/18 09:38:40;;;;;;;3.93;2.60;;;6.80;99.90;;;;;;5074140;28;20208;-89
2021/12/18 09:41:09;;;;;;;3.90;2.30;;;6.80;99.90;;;;;;5073503;28;20481;-90
2021/12/18 09:43:36;;;;;;;4.17;2.57;;;6.80;99.90;;;;;;5072554;28;20519;-90
2021/12/18 09:46:05;;;;;;;6.37;2.43;;;6.80;99.90;;;;;;5070975;28;20255;-92
2021/12/18 09:48:32;;;;;;;11.03;3.40;;;6.90;99.90;;;;;;5071014;28;20201;-94
2021/12/18 09:50:59;;;;;;;6.07;2.90;;;6.80;99.90;;;;;;5055345;28;20202;-94
2021/12/18 09:53:27;;;;;;;4.57;2.40;;;6.90;99.90;;;;;;5053308;28;20201;-93
2021/12/18 09:55:53;;;;;;;4.97;3.10;;;6.90;99.90;;;;;;5053172;28;20598;-93
2021/12/18 09:58:22;;;;;;;20.70;5.43;;;7.00;99.90;;;;;;5053317;28;20206;-92
2021/12/18 10:00:49;;;;;;;10.50;4.50;;;7.00;99.90;;;;;;5053707;28;20222;-93
2021/12/18 10:03:16;;;;;;;7.20;3.50;;;7.00;99.90;;;;;;5052979;28;20204;-92
2021/12/18 10:05:43;;;;;;;5.93;3.90;;;7.00;99.90;;;;;;5053008;28;20210;-92
2021/12/18 10:08:16;;;;;;;5.43;3.13;;;7.00;99.90;;;;;;5052951;28;20206;-93
2021/12/18 10:11:00;;;;;;;5.00;2.50;;;7.00;99.90;;;;;;5052668;28;20227;-92
2021/12/18 10:13:29;;;;;;;4.07;2.30;;;7.00;99.90;;;;;;5051004;28;20206;-93
2021/12/18 10:16:10;;;;;;;11.07;3.53;;;7.10;99.90;;;;;;5053068;28;20202;-93
2021/12/18 10:18:37;;;;;;;4.57;2.20;;;7.00;99.90;;;;;;5062586;28;20201;-93
2021/12/18 10:21:13;;;;;;;2.43;1.70;;;7.00;99.90;;;;;;5072891;28;20244;-92
2021/12/18 10:23:41;;;;;;;3.03;1.80;;;7.00;99.90;;;;;;5059373;28;20214;-91
2021/12/18 10:26:08;;;;;;;3.70;2.33;;;6.90;99.90;;;;;;5052677;28;20197;-91
2021/12/18 10:28:47;;;;;;;3.47;2.40;;;7.00;99.90;;;;;;5052289;28;20247;-91
2021/12/18 10:31:14;;;;;;;4.97;2.20;;;7.00;99.90;;;;;;5052241;28;20214;-91
2021/12/18 10:33:40;;;;;;;6.63;2.20;;;6.90;99.90;;;;;;5051392;28;20202;-88
2021/12/18 10:36:15;;;;;;;2.83;2.13;;;6.90;99.90;;;;;;5067211;28;20282;-87
2021/12/18 10:38:46;;;;;;;3.10;2.07;;;7.00;99.90;;;;;;5072494;28;20262;-89
2021/12/18 10:41:26;;;;;;;2.80;1.93;;;7.00;99.90;;;;;;5071458;28;20638;-88
2021/12/18 10:43:57;;;;;;;4.00;2.43;;;7.00;99.90;;;;;;5072218;28;20193;-84
2021/12/18 10:46:24;;;;;;;6.23;2.70;;;7.10;99.90;;;;;;5071798;28;20237;-89
2021/12/18 10:49:02;;;;;;;2.27;1.77;;;7.20;99.90;;;;;;5060559;28;20197;-89
2021/12/18 10:51:31;;;;;;;3.27;2.00;;;7.20;99.90;;;;;;5050312;28;20193;-89
2021/12/18 10:54:04;;;;;;;3.70;2.20;;;7.20;99.90;;;;;;5050639;28;20202;-89
2021/12/18 10:56:39;;;;;;;3.33;2.30;;;7.30;99.90;;;;;;5050939;28;20210;-88
2021/12/18 10:59:21;;;;;;;8.53;2.93;;;7.40;99.90;;;;;;5057833;28;20194;-89
2021/12/18 11:01:51;;;;;;;2.17;1.80;;;7.40;99.90;;;;;;5075967;28;20228;-88
2021/12/18 11:04:23;;;;;;;3.93;2.10;;;7.40;99.90;;;;;;5063275;28;20210;-89
2021/12/18 11:06:50;;;;;;;3.63;2.47;;;7.40;99.90;;;;;;5055671;28;20208;-88
2021/12/18 11:09:25;;;;;;;9.27;2.53;;;7.50;99.90;;;;;;5056752;28;20209;-88
2021/12/18 11:14:40;;;;;;;2.97;2.17;;;7.50;99.90;;;;;;5054908;28;20309;-90
2021/12/18 11:17:10;;;;;;;4.50;2.30;;;7.50;99.90;;;;;;5055753;28;20621;-91
2021/12/18 11:19:39;;;;;;;4.00;2.23;;;7.60;99.90;;;;;;5050649;28;20197;-89
2021/12/18 11:22:08;;;;;;;4.80;2.40;;;7.60;99.90;;;;;;5055850;28;20230;-90
2021/12/18 11:24:38;;;;;;;2.53;2.27;;;7.60;99.90;;;;;;5055767;28;20198;-90
2021/12/18 11:27:07;;;;;;;2.93;1.83;;;7.70;99.90;;;;;;5055977;28;20206;-93
2021/12/18 11:29:44;;;;;;;2.73;2.30;;;7.70;99.90;;;;;;5056050;28;20278;-92
2021/12/18 11:32:13;;;;;;;3.00;2.30;;;7.70;99.90;;;;;;5055828;28;20616;-90
2021/12/18 11:34:41;;;;;;;3.27;2.40;;;7.70;99.90;;;;;;5055615;28;20198;-90
2021/12/18 11:37:11;;;;;;;3.20;2.60;;;7.70;99.90;;;;;;5055719;28;20660;-89
2021/12/18 11:39:39;;;;;;;3.20;2.20;;;7.80;99.90;;;;;;5055353;28;20209;-89
2021/12/18 11:42:08;;;;;;;3.00;2.33;;;7.80;99.90;;;;;;5055018;28;20261;-92
2021/12/18 11:44:37;;;;;;;3.37;2.30;;;7.90;99.90;;;;;;5055438;28;20221;-92
2021/12/18 11:47:26;;;;;;;4.63;3.10;;;7.90;99.90;;;;;;5055815;28;20289;-89
2021/12/18 11:49:54;;;;;;;4.43;3.40;;;8.00;99.90;;;;;;5055218;28;20633;-88
2021/12/18 11:52:21;;;;;;;4.13;3.13;;;8.00;99.90;;;;;;5055158;28;20198;-89
2021/12/18 11:54:50;;;;;;;4.17;2.70;;;8.00;99.90;;;;;;5055541;28;20613;-89
2021/12/18 11:57:48;;;;;;;3.43;2.50;;;8.00;99.90;;;;;;5055442;28;20198;-89
2021/12/18 12:00:44;;;;;;;3.80;2.30;;;7.90;99.90;;;;;;5055711;28;20344;-90
2021/12/18 12:03:26;;;;;;;4.70;3.73;;;7.90;99.90;;;;;;5058728;28;20213;-90
2021/12/18 12:05:54;;;;;;;4.30;2.53;;;7.90;99.90;;;;;;5063630;28;20201;-89
2021/12/18 12:08:36;;;;;;;4.00;2.30;;;8.00;99.90;;;;;;5057641;28;20224;-88
2021/12/18 12:11:20;;;;;;;3.13;2.33;;;8.00;99.90;;;;;;5055058;28;20256;-89
2021/12/18 12:14:00;;;;;;;3.30;2.50;;;8.00;99.90;;;;;;5072722;28;20231;-88
2021/12/18 12:17:09;;;;;;;2.83;2.00;;;8.00;99.90;;;;;;5074353;28;20209;-89
2021/12/18 12:19:46;;;;;;;2.10;1.90;;;8.00;99.90;;;;;;5068756;28;20190;-88
2021/12/18 12:22:48;;;;;;;2.83;2.00;;;8.00;99.90;;;;;;5053517;28;20955;-90
2021/12/18 12:25:20;;;;;;;2.27;2.07;;;8.00;99.90;;;;;;5053049;28;20736;-88
2021/12/18 12:28:00;;;;;;;2.97;2.40;;;8.00;99.90;;;;;;5057482;28;20628;-89
2021/12/18 12:30:30;;;;;;;2.57;2.17;;;8.10;99.90;;;;;;5072769;28;20194;-88
2021/12/18 12:32:59;;;;;;;2.70;2.03;;;8.10;99.90;;;;;;5072820;28;20201;-89
2021/12/18 12:35:28;;;;;;;2.70;2.17;;;8.20;99.90;;;;;;5072216;28;20221;-90
2021/12/18 12:37:56;;;;;;;3.03;2.40;;;8.10;99.90;;;;;;5072060;28;20217;-89
2021/12/18 12:40:34;;;;;;;2.77;2.37;;;8.20;99.90;;;;;;5072735;28;20205;-89
2021/12/18 12:43:12;;;;;;;2.43;2.20;;;8.20;99.90;;;;;;5072944;28;20576;-90
2021/12/18 12:45:40;;;;;;;2.90;2.60;;;8.20;99.90;;;;;;5071687;28;20508;-89
2021/12/18 12:48:08;;;;;;;2.00;1.90;;;8.20;99.90;;;;;;5054837;28;20210;-90
2021/12/18 12:50:37;;;;;;;2.57;2.37;;;8.20;99.90;;;;;;5049822;28;20211;-90
2021/12/18 12:53:05;;;;;;;2.83;2.53;;;8.20;99.90;;;;;;5050148;28;20198;-90
2021/12/18 12:55:39;;;;;;;3.33;2.50;;;8.20;99.90;;;;;;5051026;28;20212;-88
2021/12/18 12:58:17;;;;;;;3.03;2.73;;;8.20;99.90;;;;;;5051519;28;20206;-90
2021/12/18 13:00:55;;;;;;;3.43;3.13;;;8.30;99.90;;;;;;5052095;28;20222;-90
2021/12/18 13:03:28;;;;;;;4.03;3.50;;;8.20;99.90;;;;;;5051211;28;20206;-89
2021/12/18 13:06:09;;;;;;;3.63;3.10;;;8.20;99.90;;;;;;5051719;28;20253;-89
2021/12/18 13:08:39;;;;;;;4.03;3.63;;;8.20;99.90;;;;;;5034511;28;20517;-89
2021/12/18 13:11:07;;;;;;;4.90;4.43;;;8.30;99.90;;;;;;5051260;28;20209;-89
2021/12/18 13:13:36;;;;;;;5.23;4.40;;;8.30;99.90;;;;;;5050405;28;20629;-88
2021/12/18 13:16:06;;;;;;;4.63;4.10;;;8.40;99.90;;;;;;5050636;28;20206;-89
2021/12/18 13:18:38;;;;;;;5.07;4.33;;;8.40;99.90;;;;;;5053256;28;20583;-90
2021/12/18 13:21:09;;;;;;;7.07;4.13;;;8.40;99.90;;;;;;5051837;28;20218;-91
2021/12/18 13:23:56;;;;;;;5.27;4.53;;;8.40;99.90;;;;;;5052054;28;20210;-87
2021/12/18 13:26:28;;;;;;;4.87;3.90;;;8.50;99.90;;;;;;5052987;28;20229;-87
2021/12/18 13:29:00;;;;;;;5.17;4.17;;;8.50;99.90;;;;;;5053184;28;20652;-89
2021/12/18 13:31:29;;;;;;;4.77;4.30;;;8.40;99.90;;;;;;5052245;28;20387;-88
2021/12/18 13:33:59;;;;;;;4.80;4.10;;;8.40;99.90;;;;;;5057760;28;20205;-89
2021/12/18 13:36:45;;;;;;;5.20;3.70;;;8.40;99.90;;;;;;5070619;28;20229;-91
2021/12/18 13:39:14;;;;;;;3.80;3.40;;;8.40;99.90;;;;;;5051634;28;20214;-90
2021/12/18 13:41:57;;;;;;;4.70;3.83;;;8.40;99.90;;;;;;5050999;28;20229;-90